Latest Coastal Weather Observations for Burnie Port

IDT60701

Issued at 3:22 am EST Monday 21 May 2018 (issued every 10 minutes, with the page automatically refreshed every 10 minutes)

About coastal observations | Map of coastal stations | Coastal observations for TAS | Marine services | Other Formats
Station Details ID: 091344 Name: BURNIE NTC AWS Lat: -41.05 Lon: 145.91 Height: 0.0 m
Data from the previous 72 hours. | See also: Recent months for locations in Tasmania
Date/Time
EST
Temp
°C
Wind Pressure Rain since
9am
mm
Weather Cloud Vis
km
Sea
Height
m
Swell
Dir  Spd
kts
Gust
kts
hPa Trend Height
m
Period
s
Dir
21/03:00am 11.4 W 7 13 1012.5 - - - - - - - - -
21/02:30am 11.4 WNW 6 10 1012.5 - - - - - - - - -
21/02:00am 11.5 W 4 11 1012.5 - - - - - - - - -
21/01:30am 11.4 W 5 8 1012.7 - - - - - - - - -
21/01:00am 11.8 WNW 4 7 1012.7 - - - - - - - - -
21/12:30am 11.9 WSW 6 12 1012.6 - - - - - - - - -
21/12:00am 12.1 WSW 11 20 1012.3 - - - - - - - - -
 
Date/Time
EST
Temp
°C
Wind Pressure Rain since
9am
mm
Weather Cloud Vis
km
Sea
Height
m
Swell
Dir  Spd
kts
Gust
kts
hPa Trend Height
m
Period
s
Dir
20/11:30pm 12.2 WSW 8 15 1012.1 - - - - - - - - -
20/11:00pm 12.5 WSW 10 17 1012.3 - - - - - - - - -
20/10:30pm 12.6 W 10 18 1012.5 - - - - - - - - -
20/10:00pm 13.0 W 11 21 1012.4 - - - - - - - - -
20/09:30pm 13.3 W 12 22 1012.3 - - - - - - - - -
20/09:00pm 13.2 WNW 11 18 1012.1 - - - - - - - - -
20/08:30pm 13.2 WNW 9 16 1011.9 - - - - - - - - -
20/08:00pm 13.3 W 9 16 1012.1 - - - - - - - - -
20/07:30pm 13.2 WNW 10 18 1012.1 - - - - - - - - -
20/07:00pm 13.3 WNW 10 17 1012.0 - - - - - - - - -
20/06:30pm 13.1 WNW 11 20 1011.9 - - - - - - - - -
20/06:00pm 12.9 WNW 10 15 1011.6 - - - - - - - - -
20/05:30pm 12.9 WNW 9 14 1011.7 - - - - - - - - -
20/05:00pm 13.3 WNW 10 17 1011.7 - - - - - - - - -
20/04:30pm 13.4 WNW 7 13 1011.9 - - - - - - - - -
20/04:00pm 13.2 WNW 10 21 1012.1 - - - - - - - - -
20/03:30pm 13.1 WNW 8 15 1012.4 - - - - - - - - -
20/03:00pm 13.2 WNW 10 15 1012.6 - - - - - - - - -
20/02:30pm 13.1 WNW 7 11 1012.5 - - - - - - - - -
20/02:00pm 13.3 WNW 9 15 1012.6 - - - - - - - - -
20/01:30pm 13.7 WNW 9 14 1012.6 - - - - - - - - -
20/01:00pm 14.1 WNW 9 14 1012.7 - - - - - - - - -
20/12:30pm 13.6 W 10 18 1012.9 - - - - - - - - -
20/12:00pm 14.2 W 10 20 1013.0 - - - - - - - - -
20/11:30am 14.0 WSW 8 15 1013.2 - - - - - - - - -
20/11:00am 14.3 W 9 18 1013.0 - - - - - - - - -
20/10:30am 14.0 WNW 7 13 1012.7 - - - - - - - - -
20/10:00am 13.7 W 9 15 1012.8 - - - - - - - - -
20/09:30am 13.3 W 9 14 1012.7 - - - - - - - - -
20/09:00am 12.9 W 8 14 1012.8 - - - - - - - - -
20/08:30am 12.5 WNW 8 14 1012.7 - - - - - - - - -
20/08:00am 12.5 W 5 9 1012.4 - - - - - - - - -
20/07:30am 12.5 WNW 7 11 1012.2 - - - - - - - - -
20/07:00am 12.4 WNW 9 15 1012.0 - - - - - - - - -
20/06:30am 12.5 NW 12 15 1011.7 - - - - - - - - -
20/06:00am 12.4 WNW 9 15 1011.7 - - - - - - - - -
20/05:30am 12.2 WNW 8 14 1011.2 - - - - - - - - -
20/05:00am 12.3 WNW 10 18 1011.1 - - - - - - - - -
20/04:30am 12.4 WNW 10 15 1010.9 - - - - - - - - -
20/04:00am 12.6 W 11 19 1010.8 - - - - - - - - -
20/03:30am 12.9 W 12 21 1010.8 - - - - - - - - -
20/03:00am 13.0 WNW 13 23 1010.8 - - - - - - - - -
20/02:30am 12.4 W 12 17 1011.0 - - - - - - - - -
20/02:00am 12.2 WNW 10 16 1011.2 - - - - - - - - -
20/01:30am 12.4 WNW 12 18 1011.3 - - - - - - - - -
20/01:00am 12.3 W 15 22 1011.2 - - - - - - - - -
20/12:30am 12.8 W 13 22 1011.3 - - - - - - - - -
20/12:00am 12.8 W 14 24 1011.6 - - - - - - - - -
 
Date/Time
EST
Temp
°C
Wind Pressure Rain since
9am
mm
Weather Cloud Vis
km
Sea
Height
m
Swell
Dir  Spd
kts
Gust
kts
hPa Trend Height
m
Period
s
Dir
19/11:30pm 12.8 W 10 18 1012.1 - - - - - - - - -
19/11:00pm 12.6 WNW 9 16 1012.1 - - - - - - - - -
19/10:30pm 12.2 WNW 8 13 1012.3 - - - - - - - - -
19/10:00pm 12.4 WNW 10 21 1013.0 - - - - - - - - -
19/09:30pm 11.9 WNW 11 19 1013.5 - - - - - - - - -
19/09:00pm 12.2 WNW 9 14 1013.8 - - - - - - - - -
19/08:30pm 11.6 W 11 19 1014.5 - - - - - - - - -
19/08:00pm 12.0 WNW 13 21 1014.6 - - - - - - - - -
19/07:30pm 12.0 WNW 9 16 1014.6 - - - - - - - - -
19/07:00pm 12.0 W 10 16 1014.8 - - - - - - - - -
19/06:30pm 12.1 WNW 11 18 1015.0 - - - - - - - - -
19/06:00pm 12.4 WNW 9 16 1015.1 - - - - - - - - -
19/05:30pm 12.6 WNW 9 15 1015.0 - - - - - - - - -
19/05:00pm 12.8 WNW 10 16 1015.1 - - - - - - - - -
19/04:30pm 13.0 WNW 11 17 1015.1 - - - - - - - - -
19/04:00pm 13.3 WNW 11 20 1015.4 - - - - - - - - -
19/03:30pm 13.7 WNW 13 21 1015.5 - - - - - - - - -
19/03:00pm 14.6 W 11 22 1015.6 - - - - - - - - -
19/02:30pm 14.2 WNW 11 19 1015.9 - - - - - - - - -
19/02:00pm 14.0 WNW 12 21 1016.2 - - - - - - - - -
19/01:30pm 14.1 W 12 20 1016.5 - - - - - - - - -
19/01:00pm 14.3 WNW 11 18 1017.0 - - - - - - - - -
19/12:30pm 14.1 W 10 19 1017.5 - - - - - - - - -
19/12:00pm 13.6 WNW 11 20 1018.1 - - - - - - - - -
19/11:30am 13.2 WNW 9 15 1018.6 - - - - - - - - -
19/11:00am 12.7 WNW 10 17 1019.1 - - - - - - - - -
19/10:30am 12.5 WNW 9 16 1019.4 - - - - - - - - -
19/10:00am 12.2 WNW 7 12 1019.7 - - - - - - - - -
19/09:30am 11.1 W 7 11 1019.9 - - - - - - - - -
19/09:00am 10.7 W 7 13 1020.0 - - - - - - - - -
19/08:30am 10.0 W 7 11 1020.1 - - - - - - - - -
19/08:00am 9.6 W 6 8 1020.2 - - - - - - - - -
19/07:30am 9.1 W 7 11 1020.0 - - - - - - - - -
19/07:00am 8.7 WSW 3 5 1020.0 - - - - - - - - -
19/06:30am 9.2 WNW 6 9 1020.0 - - - - - - - - -
19/06:00am 8.9 WNW 5 9 1019.7 - - - - - - - - -
19/05:30am 8.9 WNW 6 11 1019.6 - - - - - - - - -
19/05:00am 9.3 WNW 7 11 1019.4 - - - - - - - - -
19/04:30am 9.2 WNW 6 10 1019.5 - - - - - - - - -
19/04:00am 9.5 WNW 7 9 1019.6 - - - - - - - - -
19/03:30am 9.6 W 7 11 1019.7 - - - - - - - - -
19/03:00am 10.3 W 6 9 1020.0 - - - - - - - - -
19/02:30am 10.3 WSW 5 8 1020.1 - - - - - - - - -
19/02:00am 9.8 W 4 7 1020.0 - - - - - - - - -
19/01:30am 9.9 W 4 7 1020.1 - - - - - - - - -
19/01:00am 10.1 NNW 5 6 1020.1 - - - - - - - - -
19/12:30am 10.0 WNW 5 7 1020.2 - - - - - - - - -
19/12:00am 9.6 WNW 6 7 1020.2 - - - - - - - - -
 
Date/Time
EST
Temp
°C
Wind Pressure Rain since
9am
mm
Weather Cloud Vis
km
Sea
Height
m
Swell
Dir  Spd
kts
Gust
kts
hPa Trend Height
m
Period
s
Dir
18/11:30pm 9.9 WNW 4 5 1020.2 - - - - - - - - -
18/11:00pm 10.2 WNW 4 6 1020.2 - - - - - - - - -
18/10:30pm 10.3 W 4 7 1020.1 - - - - - - - - -
18/10:00pm 10.9 WNW 4 9 1020.2 - - - - - - - - -
18/09:30pm 10.9 WSW 5 8 1019.8 - - - - - - - - -
18/09:00pm 11.1 WNW 6 9 1019.6 - - - - - - - - -
18/08:30pm 11.4 W 6 9 1019.5 - - - - - - - - -
18/08:00pm 11.5 WNW 5 9 1019.6 - - - - - - - - -
18/07:30pm 11.9 W 4 8 1019.4 - - - - - - - - -
18/07:00pm 12.1 WNW 5 8 1019.0 - - - - - - - - -
18/06:30pm 12.6 W 7 12 1018.5 - - - - - - - - -
18/06:00pm 13.0 WSW 7 13 1018.2 - - - - - - - - -
18/05:30pm 13.5 W 7 14 1018.1 - - - - - - - - -
18/05:00pm 14.1 W 6 15 1017.8 - - - - - - - - -
18/04:30pm 14.9 WSW 2 5 1017.3 - - - - - - - - -
18/04:00pm 15.4 WSW 4 9 1017.2 - - - - - - - - -
18/03:30pm 15.2 WSW 7 13 1017.0 - - - - - - - - -
18/03:00pm 15.6 WSW 6 13 1016.8 - - - - - - - - -
18/02:30pm 15.7 WSW 7 14 1016.9 - - - - - - - - -
18/02:00pm 15.4 WSW 7 13 1016.9 - - - - - - - - -
18/01:30pm 15.7 WSW 6 11 1016.9 - - - - - - - - -

Other Formats:

Comma delimited format used in spreadsheet applications
http://www.bom.gov.au/fwo/IDT60701/IDT60701.95963.axf

JavaScript Object Notation format (JSON) in row-major order
http://www.bom.gov.au/fwo/IDT60701/IDT60701.95963.json